Terminal Aerodrome Forecast
Issued by NWS

Home | Current Version | Previous Version | Text Only | Print | Product List | Glossary On
Versions: 1 2 3 4 5 6 7 8 9 10 11 12 13 14 15 16 17 18 19 20 21 22 23 24 25 26 27 28 29 30 31 32 33 34 35 36 37 38 39 40 41 42 43 44 45 46 47 48 49 50
000
FTUS43 KGLD 170521
TAFMCK
TAF
KMCK 170521Z 1706/1806 12008KT P6SM FEW090 SCT250
     FM170800 17007KT P6SM SCT250
     FM172000 20012KT P6SM SCT110
     FM172300 18009KT P6SM VCTS SCT100CB BKN180
     FM180300 VRB05KT P6SM BKN100=

USA.gov is the U.S. government's official web portal to all federal, state and local government web resources and services.